sensor_id;sensor_type;location;lat;lon;timestamp;temperature;humidity
5842;DHT22;2947;52.276;9.946;2023-07-31T00:01:33;16.50;99.90
5842;DHT22;2947;52.276;9.946;2023-07-31T00:03:59;16.50;99.90
5842;DHT22;2947;52.276;9.946;2023-07-31T00:06:24;16.50;99.90
5842;DHT22;2947;52.276;9.946;2023-07-31T00:08:50;16.60;99.90
5842;DHT22;2947;52.276;9.946;2023-07-31T00:11:16;16.60;99.90
5842;DHT22;2947;52.276;9.946;2023-07-31T00:13:41;16.60;99.90
5842;DHT22;2947;52.276;9.946;2023-07-31T00:16:07;16.60;99.90
5842;DHT22;2947;52.276;9.946;2023-07-31T00:18:33;16.60;99.90
5842;DHT22;2947;52.276;9.946;2023-07-31T00:20:58;16.60;99.90
5842;DHT22;2947;52.276;9.946;2023-07-31T00:23:24;16.50;99.90
5842;DHT22;2947;52.276;9.946;2023-07-31T00:25:50;16.50;99.90
5842;DHT22;2947;52.276;9.946;2023-07-31T00:28:15;16.50;99.90
5842;DHT22;2947;52.276;9.946;2023-07-31T00:30:41;16.50;99.90
5842;DHT22;2947;52.276;9.946;2023-07-31T00:33:07;16.40;99.90
5842;DHT22;2947;52.276;9.946;2023-07-31T00:35:32;17.20;99.90
5842;DHT22;2947;52.276;9.946;2023-07-31T00:37:58;16.40;99.90
5842;DHT22;2947;52.276;9.946;2023-07-31T00:40:24;16.40;99.90
5842;DHT22;2947;52.276;9.946;2023-07-31T00:42:50;16.40;99.90
5842;DHT22;2947;52.276;9.946;2023-07-31T00:45:15;17.30;99.90
5842;DHT22;2947;52.276;9.946;2023-07-31T00:47:41;16.40;99.90
5842;DHT22;2947;52.276;9.946;2023-07-31T00:50:07;16.40;99.90
5842;DHT22;2947;52.276;9.946;2023-07-31T00:52:33;16.40;99.90
5842;DHT22;2947;52.276;9.946;2023-07-31T00:54:59;16.40;99.90
5842;DHT22;2947;52.276;9.946;2023-07-31T00:57:25;16.40;99.90
5842;DHT22;2947;52.276;9.946;2023-07-31T00:59:51;16.30;99.90
5842;DHT22;2947;52.276;9.946;2023-07-31T01:02:17;16.30;99.90
5842;DHT22;2947;52.276;9.946;2023-07-31T01:04:43;16.20;99.90
5842;DHT22;2947;52.276;9.946;2023-07-31T01:07:22;16.20;99.90
5842;DHT22;2947;52.276;9.946;2023-07-31T01:10:03;16.20;99.90
5842;DHT22;2947;52.276;9.946;2023-07-31T01:12:31;16.20;99.90
5842;DHT22;2947;52.276;9.946;2023-07-31T01:15:08;17.10;99.90
5842;DHT22;2947;52.276;9.946;2023-07-31T01:17:38;16.10;99.90
5842;DHT22;2947;52.276;9.946;2023-07-31T01:20:10;16.10;99.90
5842;DHT22;2947;52.276;9.946;2023-07-31T01:31:33;16.20;99.90
5842;DHT22;2947;52.276;9.946;2023-07-31T01:34:01;16.10;99.90
5842;DHT22;2947;52.276;9.946;2023-07-31T01:36:27;16.00;99.90
5842;DHT22;2947;52.276;9.946;2023-07-31T01:38:58;16.30;99.90
5842;DHT22;2947;52.276;9.946;2023-07-31T01:41:25;16.80;99.90
5842;DHT22;2947;52.276;9.946;2023-07-31T01:43:51;16.10;99.90
5842;DHT22;2947;52.276;9.946;2023-07-31T01:46:17;16.10;99.90
5842;DHT22;2947;52.276;9.946;2023-07-31T01:48:43;16.10;99.90
5842;DHT22;2947;52.276;9.946;2023-07-31T01:51:08;16.10;99.90
5842;DHT22;2947;52.276;9.946;2023-07-31T01:53:34;16.10;99.90
5842;DHT22;2947;52.276;9.946;2023-07-31T01:56:00;16.10;99.90
5842;DHT22;2947;52.276;9.946;2023-07-31T01:58:25;16.10;99.90
5842;DHT22;2947;52.276;9.946;2023-07-31T02:00:51;16.00;99.90
5842;DHT22;2947;52.276;9.946;2023-07-31T02:03:17;16.00;99.90
5842;DHT22;2947;52.276;9.946;2023-07-31T02:05:46;16.00;99.90
5842;DHT22;2947;52.276;9.946;2023-07-31T02:08:13;16.00;99.90
5842;DHT22;2947;52.276;9.946;2023-07-31T02:10:39;16.00;99.90
5842;DHT22;2947;52.276;9.946;2023-07-31T02:13:04;15.90;99.90
5842;DHT22;2947;52.276;9.946;2023-07-31T02:15:30;15.90;99.90
5842;DHT22;2947;52.276;9.946;2023-07-31T02:17:56;15.90;99.90
5842;DHT22;2947;52.276;9.946;2023-07-31T02:20:22;15.90;99.90
5842;DHT22;2947;52.276;9.946;2023-07-31T02:22:48;15.90;99.90
5842;DHT22;2947;52.276;9.946;2023-07-31T02:25:14;15.90;99.90
5842;DHT22;2947;52.276;9.946;2023-07-31T02:27:39;16.20;99.90
5842;DHT22;2947;52.276;9.946;2023-07-31T02:30:06;15.80;99.90
5842;DHT22;2947;52.276;9.946;2023-07-31T02:32:32;15.80;99.90
5842;DHT22;2947;52.276;9.946;2023-07-31T02:34:57;15.80;99.90
5842;DHT22;2947;52.276;9.946;2023-07-31T02:37:23;15.80;99.90
5842;DHT22;2947;52.276;9.946;2023-07-31T02:39:49;15.80;99.90
5842;DHT22;2947;52.276;9.946;2023-07-31T02:42:15;15.80;99.90
5842;DHT22;2947;52.276;9.946;2023-07-31T02:44:40;15.80;99.90
5842;DHT22;2947;52.276;9.946;2023-07-31T02:47:06;15.80;99.90
5842;DHT22;2947;52.276;9.946;2023-07-31T02:49:32;15.70;99.90
5842;DHT22;2947;52.276;9.946;2023-07-31T02:51:58;15.80;99.90
5842;DHT22;2947;52.276;9.946;2023-07-31T02:54:23;16.50;99.90
5842;DHT22;2947;52.276;9.946;2023-07-31T02:56:49;15.80;99.90
5842;DHT22;2947;52.276;9.946;2023-07-31T02:59:15;15.80;99.90
5842;DHT22;2947;52.276;9.946;2023-07-31T03:01:40;15.80;99.90
5842;DHT22;2947;52.276;9.946;2023-07-31T03:04:07;15.80;99.90
5842;DHT22;2947;52.276;9.946;2023-07-31T03:06:33;15.80;99.90
5842;DHT22;2947;52.276;9.946;2023-07-31T03:08:59;15.80;99.90
5842;DHT22;2947;52.276;9.946;2023-07-31T03:11:24;15.80;99.90
5842;DHT22;2947;52.276;9.946;2023-07-31T03:13:50;15.80;99.90
5842;DHT22;2947;52.276;9.946;2023-07-31T03:16:16;15.70;99.90
5842;DHT22;2947;52.276;9.946;2023-07-31T03:18:41;15.80;99.90
5842;DHT22;2947;52.276;9.946;2023-07-31T03:21:07;15.80;99.90
5842;DHT22;2947;52.276;9.946;2023-07-31T03:23:33;17.00;99.90
5842;DHT22;2947;52.276;9.946;2023-07-31T03:26:00;15.80;99.90
5842;DHT22;2947;52.276;9.946;2023-07-31T03:28:28;15.80;99.90
5842;DHT22;2947;52.276;9.946;2023-07-31T03:30:54;15.80;99.90
5842;DHT22;2947;52.276;9.946;2023-07-31T03:33:20;15.80;99.90
5842;DHT22;2947;52.276;9.946;2023-07-31T03:35:46;15.80;99.90
5842;DHT22;2947;52.276;9.946;2023-07-31T03:38:11;15.80;99.90
5842;DHT22;2947;52.276;9.946;2023-07-31T03:40:37;15.80;99.90
5842;DHT22;2947;52.276;9.946;2023-07-31T03:43:03;16.00;99.90
5842;DHT22;2947;52.276;9.946;2023-07-31T03:45:28;15.90;99.90
5842;DHT22;2947;52.276;9.946;2023-07-31T03:47:54;15.90;99.90
5842;DHT22;2947;52.276;9.946;2023-07-31T03:50:20;15.90;99.90
5842;DHT22;2947;52.276;9.946;2023-07-31T03:52:46;15.90;99.90
5842;DHT22;2947;52.276;9.946;2023-07-31T03:55:12;16.80;99.90
5842;DHT22;2947;52.276;9.946;2023-07-31T03:57:38;15.90;99.90
5842;DHT22;2947;52.276;9.946;2023-07-31T04:00:04;15.90;99.90
5842;DHT22;2947;52.276;9.946;2023-07-31T04:02:30;15.80;99.90
5842;DHT22;2947;52.276;9.946;2023-07-31T04:04:56;17.20;99.90
5842;DHT22;2947;52.276;9.946;2023-07-31T04:07:21;15.80;99.90
5842;DHT22;2947;52.276;9.946;2023-07-31T04:09:47;15.80;99.90
5842;DHT22;2947;52.276;9.946;2023-07-31T04:12:13;15.80;99.90
5842;DHT22;2947;52.276;9.946;2023-07-31T04:14:38;15.80;99.90
5842;DHT22;2947;52.276;9.946;2023-07-31T04:17:04;15.80;99.90
5842;DHT22;2947;52.276;9.946;2023-07-31T04:19:30;15.80;99.90
5842;DHT22;2947;52.276;9.946;2023-07-31T04:21:55;16.80;99.90
5842;DHT22;2947;52.276;9.946;2023-07-31T04:24:21;15.80;99.90
5842;DHT22;2947;52.276;9.946;2023-07-31T04:26:53;15.70;99.90
5842;DHT22;2947;52.276;9.946;2023-07-31T04:29:19;15.70;99.90
5842;DHT22;2947;52.276;9.946;2023-07-31T04:31:45;15.70;99.90
5842;DHT22;2947;52.276;9.946;2023-07-31T04:34:11;15.60;99.90
5842;DHT22;2947;52.276;9.946;2023-07-31T04:36:39;15.60;99.90
5842;DHT22;2947;52.276;9.946;2023-07-31T04:39:05;15.60;99.90
5842;DHT22;2947;52.276;9.946;2023-07-31T04:41:31;15.50;99.90
5842;DHT22;2947;52.276;9.946;2023-07-31T04:43:56;15.60;99.90
5842;DHT22;2947;52.276;9.946;2023-07-31T04:46:22;15.50;99.90
5842;DHT22;2947;52.276;9.946;2023-07-31T04:48:48;15.50;99.90
5842;DHT22;2947;52.276;9.946;2023-07-31T04:51:13;15.50;99.90
5842;DHT22;2947;52.276;9.946;2023-07-31T04:53:39;15.50;99.90
5842;DHT22;2947;52.276;9.946;2023-07-31T04:56:05;17.30;99.90
5842;DHT22;2947;52.276;9.946;2023-07-31T04:58:31;15.50;99.90
5842;DHT22;2947;52.276;9.946;2023-07-31T05:00:56;15.50;99.90
5842;DHT22;2947;52.276;9.946;2023-07-31T05:03:22;15.50;99.90
5842;DHT22;2947;52.276;9.946;2023-07-31T05:05:48;15.50;99.90
5842;DHT22;2947;52.276;9.946;2023-07-31T05:08:14;15.50;99.90
5842;DHT22;2947;52.276;9.946;2023-07-31T05:10:39;15.60;99.90
5842;DHT22;2947;52.276;9.946;2023-07-31T05:13:05;15.60;99.90
5842;DHT22;2947;52.276;9.946;2023-07-31T05:15:31;15.50;99.90
5842;DHT22;2947;52.276;9.946;2023-07-31T05:17:57;14.10;99.90
5842;DHT22;2947;52.276;9.946;2023-07-31T05:20:23;15.50;99.90
5842;DHT22;2947;52.276;9.946;2023-07-31T05:22:48;15.50;99.90
5842;DHT22;2947;52.276;9.946;2023-07-31T05:25:14;15.40;99.90
5842;DHT22;2947;52.276;9.946;2023-07-31T05:27:40;15.40;99.90
5842;DHT22;2947;52.276;9.946;2023-07-31T05:30:06;16.90;99.90
5842;DHT22;2947;52.276;9.946;2023-07-31T05:32:32;15.50;99.90
5842;DHT22;2947;52.276;9.946;2023-07-31T05:34:58;15.60;99.90
5842;DHT22;2947;52.276;9.946;2023-07-31T05:37:24;15.60;99.90
5842;DHT22;2947;52.276;9.946;2023-07-31T05:39:49;15.60;99.90
5842;DHT22;2947;52.276;9.946;2023-07-31T05:42:16;15.70;99.90
5842;DHT22;2947;52.276;9.946;2023-07-31T05:44:41;15.40;99.90
5842;DHT22;2947;52.276;9.946;2023-07-31T05:47:07;16.70;99.90
5842;DHT22;2947;52.276;9.946;2023-07-31T05:49:33;15.80;99.90
5842;DHT22;2947;52.276;9.946;2023-07-31T05:51:59;15.80;99.90
5842;DHT22;2947;52.276;9.946;2023-07-31T05:54:25;15.90;99.90
5842;DHT22;2947;52.276;9.946;2023-07-31T05:56:50;15.90;99.90
5842;DHT22;2947;52.276;9.946;2023-07-31T05:59:16;17.60;99.90
5842;DHT22;2947;52.276;9.946;2023-07-31T06:01:42;14.50;99.90
5842;DHT22;2947;52.276;9.946;2023-07-31T06:04:08;16.00;99.90
5842;DHT22;2947;52.276;9.946;2023-07-31T06:06:34;16.00;99.90
5842;DHT22;2947;52.276;9.946;2023-07-31T06:09:00;16.00;99.90
5842;DHT22;2947;52.276;9.946;2023-07-31T06:11:26;16.90;99.90
5842;DHT22;2947;52.276;9.946;2023-07-31T06:13:51;16.30;99.90
5842;DHT22;2947;52.276;9.946;2023-07-31T06:16:17;16.00;99.90
5842;DHT22;2947;52.276;9.946;2023-07-31T06:18:43;16.10;99.90
5842;DHT22;2947;52.276;9.946;2023-07-31T06:21:09;16.10;99.90
5842;DHT22;2947;52.276;9.946;2023-07-31T06:23:36;16.10;99.90
5842;DHT22;2947;52.276;9.946;2023-07-31T06:26:01;17.70;99.90
5842;DHT22;2947;52.276;9.946;2023-07-31T06:28:31;16.10;99.90
5842;DHT22;2947;52.276;9.946;2023-07-31T06:31:00;16.10;99.90
5842;DHT22;2947;52.276;9.946;2023-07-31T06:33:27;16.10;99.90
5842;DHT22;2947;52.276;9.946;2023-07-31T06:35:53;17.70;99.90
5842;DHT22;2947;52.276;9.946;2023-07-31T06:38:22;16.10;99.90
5842;DHT22;2947;52.276;9.946;2023-07-31T06:40:50;16.10;99.90
5842;DHT22;2947;52.276;9.946;2023-07-31T06:43:15;16.10;99.90
5842;DHT22;2947;52.276;9.946;2023-07-31T06:45:41;16.10;99.90
5842;DHT22;2947;52.276;9.946;2023-07-31T06:48:07;16.10;99.90
5842;DHT22;2947;52.276;9.946;2023-07-31T06:50:33;16.10;99.90
5842;DHT22;2947;52.276;9.946;2023-07-31T06:52:59;16.00;99.90
5842;DHT22;2947;52.276;9.946;2023-07-31T06:55:26;16.00;99.90
5842;DHT22;2947;52.276;9.946;2023-07-31T06:57:53;16.10;99.90
5842;DHT22;2947;52.276;9.946;2023-07-31T07:00:21;16.10;99.90
5842;DHT22;2947;52.276;9.946;2023-07-31T07:02:48;16.10;99.90
5842;DHT22;2947;52.276;9.946;2023-07-31T07:05:15;17.00;99.90
5842;DHT22;2947;52.276;9.946;2023-07-31T07:07:42;16.10;99.90
5842;DHT22;2947;52.276;9.946;2023-07-31T07:10:08;16.20;99.90
5842;DHT22;2947;52.276;9.946;2023-07-31T07:12:34;16.10;99.90
5842;DHT22;2947;52.276;9.946;2023-07-31T07:15:01;16.10;99.90
5842;DHT22;2947;52.276;9.946;2023-07-31T07:17:28;16.20;99.90
5842;DHT22;2947;52.276;9.946;2023-07-31T07:19:56;16.20;99.90
5842;DHT22;2947;52.276;9.946;2023-07-31T07:22:23;16.20;99.90
5842;DHT22;2947;52.276;9.946;2023-07-31T07:24:49;16.20;99.90
5842;DHT22;2947;52.276;9.946;2023-07-31T07:27:15;16.20;99.90
5842;DHT22;2947;52.276;9.946;2023-07-31T07:29:40;16.30;99.90
5842;DHT22;2947;52.276;9.946;2023-07-31T07:32:06;16.30;99.90
5842;DHT22;2947;52.276;9.946;2023-07-31T07:34:32;16.20;99.90
5842;DHT22;2947;52.276;9.946;2023-07-31T07:36:58;16.20;99.90
5842;DHT22;2947;52.276;9.946;2023-07-31T07:39:24;16.30;99.90
5842;DHT22;2947;52.276;9.946;2023-07-31T07:41:50;16.30;99.90
5842;DHT22;2947;52.276;9.946;2023-07-31T07:44:16;16.30;99.90
5842;DHT22;2947;52.276;9.946;2023-07-31T07:46:41;16.40;99.90
5842;DHT22;2947;52.276;9.946;2023-07-31T07:49:07;16.50;99.90
5842;DHT22;2947;52.276;9.946;2023-07-31T07:51:33;17.00;99.90
5842;DHT22;2947;52.276;9.946;2023-07-31T07:53:59;16.50;99.90
5842;DHT22;2947;52.276;9.946;2023-07-31T07:56:26;16.50;99.90
5842;DHT22;2947;52.276;9.946;2023-07-31T07:58:52;16.50;99.90
5842;DHT22;2947;52.276;9.946;2023-07-31T08:01:18;18.10;99.90
5842;DHT22;2947;52.276;9.946;2023-07-31T08:03:45;16.60;99.90
5842;DHT22;2947;52.276;9.946;2023-07-31T08:06:10;16.60;99.90
5842;DHT22;2947;52.276;9.946;2023-07-31T08:08:37;16.70;99.90
5842;DHT22;2947;52.276;9.946;2023-07-31T08:11:02;16.70;99.90
5842;DHT22;2947;52.276;9.946;2023-07-31T08:13:28;16.70;99.90
5842;DHT22;2947;52.276;9.946;2023-07-31T08:15:54;16.80;99.90
5842;DHT22;2947;52.276;9.946;2023-07-31T08:18:20;16.80;99.90
5842;DHT22;2947;52.276;9.946;2023-07-31T08:20:45;16.80;99.90
5842;DHT22;2947;52.276;9.946;2023-07-31T08:23:11;16.80;99.90
5842;DHT22;2947;52.276;9.946;2023-07-31T08:25:37;16.80;99.90
5842;DHT22;2947;52.276;9.946;2023-07-31T08:28:04;16.80;99.90
5842;DHT22;2947;52.276;9.946;2023-07-31T08:30:31;16.90;99.90
5842;DHT22;2947;52.276;9.946;2023-07-31T08:32:56;16.90;99.90
5842;DHT22;2947;52.276;9.946;2023-07-31T08:35:26;16.90;99.90
5842;DHT22;2947;52.276;9.946;2023-07-31T08:37:53;16.90;99.90
5842;DHT22;2947;52.276;9.946;2023-07-31T08:40:20;17.00;99.90
5842;DHT22;2947;52.276;9.946;2023-07-31T08:42:48;17.00;99.90
5842;DHT22;2947;52.276;9.946;2023-07-31T08:45:16;17.00;99.90
5842;DHT22;2947;52.276;9.946;2023-07-31T08:47:51;17.70;99.90
5842;DHT22;2947;52.276;9.946;2023-07-31T08:50:21;17.20;99.90
5842;DHT22;2947;52.276;9.946;2023-07-31T08:52:48;16.90;99.90
5842;DHT22;2947;52.276;9.946;2023-07-31T08:55:15;17.30;99.90
5842;DHT22;2947;52.276;9.946;2023-07-31T08:57:41;17.70;99.90
5842;DHT22;2947;52.276;9.946;2023-07-31T09:00:09;16.90;99.90
5842;DHT22;2947;52.276;9.946;2023-07-31T09:05:35;16.70;99.90
5842;DHT22;2947;52.276;9.946;2023-07-31T09:08:04;16.90;99.90
5842;DHT22;2947;52.276;9.946;2023-07-31T09:10:30;16.80;99.90
5842;DHT22;2947;52.276;9.946;2023-07-31T09:12:56;16.80;99.90
5842;DHT22;2947;52.276;9.946;2023-07-31T09:15:23;16.80;99.90
5842;DHT22;2947;52.276;9.946;2023-07-31T09:17:58;16.90;99.90
5842;DHT22;2947;52.276;9.946;2023-07-31T09:20:26;16.40;99.90
5842;DHT22;2947;52.276;9.946;2023-07-31T09:22:52;16.90;99.90
5842;DHT22;2947;52.276;9.946;2023-07-31T09:25:27;16.90;99.90
5842;DHT22;2947;52.276;9.946;2023-07-31T09:28:01;16.80;99.90
5842;DHT22;2947;52.276;9.946;2023-07-31T09:30:50;16.90;99.90
5842;DHT22;2947;52.276;9.946;2023-07-31T09:33:17;16.90;99.90
5842;DHT22;2947;52.276;9.946;2023-07-31T09:35:44;17.90;99.90
5842;DHT22;2947;52.276;9.946;2023-07-31T09:38:11;16.90;99.90
5842;DHT22;2947;52.276;9.946;2023-07-31T09:40:49;16.80;99.90
5842;DHT22;2947;52.276;9.946;2023-07-31T09:43:21;16.80;99.90
5842;DHT22;2947;52.276;9.946;2023-07-31T09:45:48;16.90;99.90
5842;DHT22;2947;52.276;9.946;2023-07-31T09:48:16;17.20;99.90
5842;DHT22;2947;52.276;9.946;2023-07-31T09:50:47;17.80;99.90
5842;DHT22;2947;52.276;9.946;2023-07-31T09:53:14;16.90;99.90
5842;DHT22;2947;52.276;9.946;2023-07-31T09:55:41;17.10;99.90
5842;DHT22;2947;52.276;9.946;2023-07-31T09:58:12;16.90;99.90
5842;DHT22;2947;52.276;9.946;2023-07-31T10:00:39;17.00;99.90
5842;DHT22;2947;52.276;9.946;2023-07-31T10:03:08;17.00;99.90
5842;DHT22;2947;52.276;9.946;2023-07-31T10:08:20;18.10;99.90
5842;DHT22;2947;52.276;9.946;2023-07-31T10:10:47;17.20;99.90
5842;DHT22;2947;52.276;9.946;2023-07-31T10:13:14;17.80;99.90
5842;DHT22;2947;52.276;9.946;2023-07-31T10:15:40;17.30;99.90
5842;DHT22;2947;52.276;9.946;2023-07-31T10:18:08;17.30;99.90
5842;DHT22;2947;52.276;9.946;2023-07-31T10:20:34;17.40;99.90
5842;DHT22;2947;52.276;9.946;2023-07-31T10:23:00;17.40;99.90
5842;DHT22;2947;52.276;9.946;2023-07-31T10:25:26;17.40;99.90
5842;DHT22;2947;52.276;9.946;2023-07-31T10:27:53;17.50;99.90
5842;DHT22;2947;52.276;9.946;2023-07-31T10:30:23;16.80;99.90
5842;DHT22;2947;52.276;9.946;2023-07-31T10:32:53;18.20;99.90
5842;DHT22;2947;52.276;9.946;2023-07-31T10:35:19;17.60;99.90
5842;DHT22;2947;52.276;9.946;2023-07-31T10:37:47;18.50;99.90
5842;DHT22;2947;52.276;9.946;2023-07-31T10:40:18;17.80;99.90
5842;DHT22;2947;52.276;9.946;2023-07-31T10:42:49;19.00;99.90
5842;DHT22;2947;52.276;9.946;2023-07-31T10:45:30;18.00;99.90
5842;DHT22;2947;52.276;9.946;2023-07-31T10:48:03;18.20;99.90
5842;DHT22;2947;52.276;9.946;2023-07-31T10:50:30;18.20;99.90
5842;DHT22;2947;52.276;9.946;2023-07-31T10:53:00;18.30;99.90
5842;DHT22;2947;52.276;9.946;2023-07-31T10:55:32;18.80;99.90
5842;DHT22;2947;52.276;9.946;2023-07-31T10:58:11;18.30;99.90
5842;DHT22;2947;52.276;9.946;2023-07-31T11:00:43;18.40;99.90
5842;DHT22;2947;52.276;9.946;2023-07-31T11:03:17;18.40;99.90
5842;DHT22;2947;52.276;9.946;2023-07-31T11:05:49;18.50;99.90
5842;DHT22;2947;52.276;9.946;2023-07-31T11:08:26;18.70;99.90
5842;DHT22;2947;52.276;9.946;2023-07-31T11:13:41;19.90;99.90
5842;DHT22;2947;52.276;9.946;2023-07-31T11:16:19;19.40;99.90
5842;DHT22;2947;52.276;9.946;2023-07-31T11:18:47;19.10;99.90
5842;DHT22;2947;52.276;9.946;2023-07-31T11:21:16;19.30;99.90
5842;DHT22;2947;52.276;9.946;2023-07-31T11:23:47;19.10;99.90
5842;DHT22;2947;52.276;9.946;2023-07-31T11:26:14;19.20;99.90
5842;DHT22;2947;52.276;9.946;2023-07-31T11:28:40;19.10;99.90
5842;DHT22;2947;52.276;9.946;2023-07-31T11:31:09;19.10;99.90
5842;DHT22;2947;52.276;9.946;2023-07-31T11:33:36;19.30;99.90
5842;DHT22;2947;52.276;9.946;2023-07-31T11:36:02;19.00;99.90
5842;DHT22;2947;52.276;9.946;2023-07-31T11:38:29;18.90;99.90
5842;DHT22;2947;52.276;9.946;2023-07-31T11:41:01;18.90;99.90
5842;DHT22;2947;52.276;9.946;2023-07-31T11:43:29;18.80;99.90
5842;DHT22;2947;52.276;9.946;2023-07-31T11:45:57;18.90;99.90
5842;DHT22;2947;52.276;9.946;2023-07-31T11:48:28;19.30;99.90
5842;DHT22;2947;52.276;9.946;2023-07-31T11:51:01;19.90;99.90
5842;DHT22;2947;52.276;9.946;2023-07-31T11:56:09;18.90;99.90
5842;DHT22;2947;52.276;9.946;2023-07-31T11:58:37;19.00;99.90
5842;DHT22;2947;52.276;9.946;2023-07-31T12:01:05;19.70;99.90
5842;DHT22;2947;52.276;9.946;2023-07-31T12:03:31;19.10;99.90
5842;DHT22;2947;52.276;9.946;2023-07-31T12:05:58;19.00;99.90
5842;DHT22;2947;52.276;9.946;2023-07-31T12:08:25;19.00;99.90
5842;DHT22;2947;52.276;9.946;2023-07-31T12:10:53;19.00;99.90
5842;DHT22;2947;52.276;9.946;2023-07-31T12:13:26;19.10;99.90
5842;DHT22;2947;52.276;9.946;2023-07-31T12:15:56;19.20;99.90
5842;DHT22;2947;52.276;9.946;2023-07-31T12:18:26;19.20;99.90
5842;DHT22;2947;52.276;9.946;2023-07-31T12:20:57;19.10;99.90
5842;DHT22;2947;52.276;9.946;2023-07-31T12:23:29;19.10;99.90
5842;DHT22;2947;52.276;9.946;2023-07-31T12:26:07;19.40;99.90
5842;DHT22;2947;52.276;9.946;2023-07-31T12:28:44;18.90;99.90
5842;DHT22;2947;52.276;9.946;2023-07-31T12:31:16;18.90;99.90
5842;DHT22;2947;52.276;9.946;2023-07-31T12:33:46;18.90;99.90
5842;DHT22;2947;52.276;9.946;2023-07-31T12:36:23;18.90;99.90
5842;DHT22;2947;52.276;9.946;2023-07-31T12:38:50;18.80;99.90
5842;DHT22;2947;52.276;9.946;2023-07-31T12:41:17;18.70;99.90
5842;DHT22;2947;52.276;9.946;2023-07-31T12:43:44;18.80;99.90
5842;DHT22;2947;52.276;9.946;2023-07-31T12:46:10;18.80;99.90
5842;DHT22;2947;52.276;9.946;2023-07-31T12:48:38;19.30;99.90
5842;DHT22;2947;52.276;9.946;2023-07-31T12:51:04;18.90;99.90
5842;DHT22;2947;52.276;9.946;2023-07-31T12:53:30;19.00;99.90
5842;DHT22;2947;52.276;9.946;2023-07-31T12:55:56;19.00;99.90
5842;DHT22;2947;52.276;9.946;2023-07-31T12:58:23;18.90;99.90
5842;DHT22;2947;52.276;9.946;2023-07-31T13:00:49;18.80;99.90
5842;DHT22;2947;52.276;9.946;2023-07-31T13:03:15;18.80;99.90
5842;DHT22;2947;52.276;9.946;2023-07-31T13:05:41;18.80;99.90
5842;DHT22;2947;52.276;9.946;2023-07-31T13:08:07;18.80;99.90
5842;DHT22;2947;52.276;9.946;2023-07-31T13:10:33;19.00;99.90
5842;DHT22;2947;52.276;9.946;2023-07-31T13:12:59;19.00;99.90
5842;DHT22;2947;52.276;9.946;2023-07-31T13:15:24;19.30;99.90
5842;DHT22;2947;52.276;9.946;2023-07-31T13:17:50;19.50;99.90
5842;DHT22;2947;52.276;9.946;2023-07-31T13:20:16;19.60;99.90
5842;DHT22;2947;52.276;9.946;2023-07-31T13:22:42;19.70;99.90
5842;DHT22;2947;52.276;9.946;2023-07-31T13:25:08;19.60;99.90
5842;DHT22;2947;52.276;9.946;2023-07-31T13:27:35;19.60;99.90
5842;DHT22;2947;52.276;9.946;2023-07-31T13:30:01;19.50;99.90
5842;DHT22;2947;52.276;9.946;2023-07-31T13:32:26;19.40;99.90
5842;DHT22;2947;52.276;9.946;2023-07-31T13:34:52;19.30;99.90
5842;DHT22;2947;52.276;9.946;2023-07-31T13:37:18;19.30;99.90
5842;DHT22;2947;52.276;9.946;2023-07-31T13:39:43;19.40;99.90
5842;DHT22;2947;52.276;9.946;2023-07-31T13:42:10;20.30;99.90
5842;DHT22;2947;52.276;9.946;2023-07-31T13:44:41;19.50;99.90
5842;DHT22;2947;52.276;9.946;2023-07-31T13:47:08;19.50;99.90
5842;DHT22;2947;52.276;9.946;2023-07-31T13:49:34;20.50;99.90
5842;DHT22;2947;52.276;9.946;2023-07-31T13:52:01;19.50;99.90
5842;DHT22;2947;52.276;9.946;2023-07-31T13:54:27;19.50;99.90
5842;DHT22;2947;52.276;9.946;2023-07-31T13:56:53;19.50;99.90
5842;DHT22;2947;52.276;9.946;2023-07-31T13:59:19;19.40;99.90
5842;DHT22;2947;52.276;9.946;2023-07-31T14:01:45;19.30;99.90
5842;DHT22;2947;52.276;9.946;2023-07-31T14:04:12;19.30;99.90
5842;DHT22;2947;52.276;9.946;2023-07-31T14:06:39;20.20;99.90
5842;DHT22;2947;52.276;9.946;2023-07-31T14:09:05;19.40;99.90
5842;DHT22;2947;52.276;9.946;2023-07-31T14:11:31;19.60;99.90
5842;DHT22;2947;52.276;9.946;2023-07-31T14:13:57;19.60;99.90
5842;DHT22;2947;52.276;9.946;2023-07-31T14:16:23;19.70;99.90
5842;DHT22;2947;52.276;9.946;2023-07-31T14:18:49;19.70;99.90
5842;DHT22;2947;52.276;9.946;2023-07-31T14:21:15;20.10;99.90
5842;DHT22;2947;52.276;9.946;2023-07-31T14:23:41;19.70;99.90
5842;DHT22;2947;52.276;9.946;2023-07-31T14:26:07;19.80;99.90
5842;DHT22;2947;52.276;9.946;2023-07-31T14:28:33;20.60;99.90
5842;DHT22;2947;52.276;9.946;2023-07-31T14:30:59;19.80;99.90
5842;DHT22;2947;52.276;9.946;2023-07-31T14:33:24;19.90;99.90
5842;DHT22;2947;52.276;9.946;2023-07-31T14:35:50;19.90;99.90
5842;DHT22;2947;52.276;9.946;2023-07-31T14:38:16;19.90;99.90
5842;DHT22;2947;52.276;9.946;2023-07-31T14:40:42;20.00;99.90
5842;DHT22;2947;52.276;9.946;2023-07-31T14:43:08;20.00;99.90
5842;DHT22;2947;52.276;9.946;2023-07-31T14:45:34;20.00;99.90
5842;DHT22;2947;52.276;9.946;2023-07-31T14:47:59;19.90;99.90
5842;DHT22;2947;52.276;9.946;2023-07-31T14:50:26;19.90;99.90
5842;DHT22;2947;52.276;9.946;2023-07-31T14:52:51;19.90;99.90
5842;DHT22;2947;52.276;9.946;2023-07-31T14:55:18;19.90;99.90
5842;DHT22;2947;52.276;9.946;2023-07-31T14:57:44;20.20;99.90
5842;DHT22;2947;52.276;9.946;2023-07-31T15:00:10;19.90;99.90
5842;DHT22;2947;52.276;9.946;2023-07-31T15:02:39;19.80;99.90
5842;DHT22;2947;52.276;9.946;2023-07-31T15:05:06;19.90;99.90
5842;DHT22;2947;52.276;9.946;2023-07-31T15:07:32;19.90;99.90
5842;DHT22;2947;52.276;9.946;2023-07-31T15:09:59;20.00;99.90
5842;DHT22;2947;52.276;9.946;2023-07-31T15:12:26;20.20;99.90
5842;DHT22;2947;52.276;9.946;2023-07-31T15:14:52;20.20;99.90
5842;DHT22;2947;52.276;9.946;2023-07-31T15:17:18;20.30;99.90
5842;DHT22;2947;52.276;9.946;2023-07-31T15:19:44;20.90;99.90
5842;DHT22;2947;52.276;9.946;2023-07-31T15:22:09;20.50;99.90
5842;DHT22;2947;52.276;9.946;2023-07-31T15:24:35;20.40;99.90
5842;DHT22;2947;52.276;9.946;2023-07-31T15:27:01;20.50;99.90
5842;DHT22;2947;52.276;9.946;2023-07-31T15:29:28;20.60;99.90
5842;DHT22;2947;52.276;9.946;2023-07-31T15:31:55;20.60;99.90
5842;DHT22;2947;52.276;9.946;2023-07-31T15:34:21;20.60;98.30
5842;DHT22;2947;52.276;9.946;2023-07-31T15:36:47;20.70;99.90
5842;DHT22;2947;52.276;9.946;2023-07-31T15:39:13;20.60;99.90
5842;DHT22;2947;52.276;9.946;2023-07-31T15:41:39;20.70;99.90
5842;DHT22;2947;52.276;9.946;2023-07-31T15:44:05;20.70;99.90
5842;DHT22;2947;52.276;9.946;2023-07-31T15:46:31;20.60;99.90
5842;DHT22;2947;52.276;9.946;2023-07-31T15:48:57;20.60;99.90
5842;DHT22;2947;52.276;9.946;2023-07-31T15:51:23;20.60;99.90
5842;DHT22;2947;52.276;9.946;2023-07-31T15:53:50;20.50;99.90
5842;DHT22;2947;52.276;9.946;2023-07-31T15:56:16;21.70;99.90
5842;DHT22;2947;52.276;9.946;2023-07-31T15:58:42;20.50;88.20
5842;DHT22;2947;52.276;9.946;2023-07-31T16:01:08;20.60;98.80
5842;DHT22;2947;52.276;9.946;2023-07-31T16:03:34;20.70;99.90
5842;DHT22;2947;52.276;9.946;2023-07-31T16:05:59;20.90;99.90
5842;DHT22;2947;52.276;9.946;2023-07-31T16:08:25;20.60;99.90
5842;DHT22;2947;52.276;9.946;2023-07-31T16:10:51;21.10;99.90
5842;DHT22;2947;52.276;9.946;2023-07-31T16:13:17;20.50;99.90
5842;DHT22;2947;52.276;9.946;2023-07-31T16:15:42;21.40;99.90
5842;DHT22;2947;52.276;9.946;2023-07-31T16:18:08;20.50;99.90
5842;DHT22;2947;52.276;9.946;2023-07-31T16:20:35;20.60;99.90